Летающим высоко и низко: ПОГОДА В АЭРОПОРТАХ

Datasource: http://meteocentre.com/cgi-bin/get_taf?STN=UUEE
    за последний срок по а/п  (сейчас 17:32 мск)
UUEE на Метеоцентре                GFS-прогноз по UUEE                   Погода сейчас
UUEE: 6

Line #10 1 65: TAF UUEE 231656Z 2318/2418 23005G10MPS 3100 -SN OVC011 TX00/2412Z

231656Z Авиапрогноз Москва (Шереметьево), составлен 23 февраля 20:56 мск:
с 21:00 (23 февраля) до 21:00 (24 февраля) ветер 230° (ЮЗ) 5 м/c; порывы 10 м/c; видимость 3100 м; слаб. снег; облачн. сплошная 330 м; [TX00/2412Z]

Line #11 2 60: TNM06/2401Z TEMPO 2318/2320 2100 -SHSN FEW007 BKN012CB BECMG
[TNM06/2401Z]
Временами с 21:00 (23 февраля) до 23:00 (23 февраля) видимость 2100 м; слаб. ливневой снег; облачн. отдельная 210 м; значительная 360 м кучево-дождевая;
Постеп. изменение:

Line #12 3 66: 2323/2401 29003MPS 9000 NSW TEMPO 2401/2408 3100 -SN FEW004 SCT007
с 2:00 (24 февраля) до 4:00 (24 февраля) ветер 290° (ЗСЗ) 3 м/c; видимость 9000 м; [NSW]
Временами с 4:00 (24 февраля) до 11:00 (24 февраля) видимость 3100 м; слаб. снег; облачн. отдельная 120 м; разбросанная 210 м;

Line #13 4 32: OVC011 BECMG 2416/2418 23006MPS
облачн. сплошная 330 м;
Постеп. изменение: с 19:00 (24 февраля) до 21:00 (24 февраля) ветер 230° (ЮЗ) 6 м/c;

Line #14 5 65: TAF UUEE 231656Z 2318/2418 23005G10MPS 3100 -SN OVC011 TX00/2412Z

Авиапрогноз Москва (Шереметьево), составлен 23 февраля 20:56 мск:
с 21:00 (23 февраля) до 21:00 (24 февраля) ветер 230° (ЮЗ) 5 м/c; порывы 10 м/c; видимость 3100 м; слаб. снег; облачн. сплошная 330 м; [TX00/2412Z]

Line #15 6 11: TNM06/2401Z
[TNM06/2401Z]

Line #16 7 42: TEMPO 2318/2320 2100 -SHSN FEW007 BKN012CB

Временами с 21:00 (23 февраля) до 23:00 (23 февраля) видимость 2100 м; слаб. ливневой снег; облачн. отдельная 210 м; значительная 360 м кучево-дождевая;

Line #17 8 33: BECMG 2323/2401 29003MPS 9000 NSW

Постеп. изменение: с 2:00 (24 февраля) до 4:00 (24 февраля) ветер 290° (ЗСЗ) 3 м/c; видимость 9000 м; [NSW]

Line #18 9 45: TEMPO 2401/2408 3100 -SN FEW004 SCT007 OVC011

Временами с 4:00 (24 февраля) до 11:00 (24 февраля) видимость 3100 м; слаб. снег; облачн. отдельная 120 м; разбросанная 210 м; сплошная 330 м;

Line #19 10 25: BECMG 2416/2418 23006MPS

Постеп. изменение: с 19:00 (24 февраля) до 21:00 (24 февраля) ветер 230° (ЮЗ) 6 м/c;

Line #20 11 65: TAF UUEE 231656Z 2318/2418 23005G10MPS 3100 -SN OVC011 TX00/2412Z

Авиапрогноз Москва (Шереметьево), составлен 23 февраля 20:56 мск:
с 21:00 (23 февраля) до 21:00 (24 февраля) ветер 230° (ЮЗ) 5 м/c; порывы 10 м/c; видимость 3100 м; слаб. снег; облачн. сплошная 330 м; [TX00/2412Z]

Line #21 12 11: TNM06/2401Z
[TNM06/2401Z]

Line #22 13 42: TEMPO 2318/2320 2100 -SHSN FEW007 BKN012CB

Временами с 21:00 (23 февраля) до 23:00 (23 февраля) видимость 2100 м; слаб. ливневой снег; облачн. отдельная 210 м; значительная 360 м кучево-дождевая;

Line #23 14 33: BECMG 2323/2401 29003MPS 9000 NSW

Постеп. изменение: с 2:00 (24 февраля) до 4:00 (24 февраля) ветер 290° (ЗСЗ) 3 м/c; видимость 9000 м; [NSW]

Line #24 15 45: TEMPO 2401/2408 3100 -SN FEW004 SCT007 OVC011

Временами с 4:00 (24 февраля) до 11:00 (24 февраля) видимость 3100 м; слаб. снег; облачн. отдельная 120 м; разбросанная 210 м; сплошная 330 м;

Line #25 16 25: BECMG 2416/2418 23006MPS

Постеп. изменение: с 19:00 (24 февраля) до 21:00 (24 февраля) ветер 230° (ЮЗ) 6 м/c;